sensor_id;sensor_type;location;lat;lon;timestamp;P1;durP1;ratioP1;P2;durP2;ratioP2
23252;SDS011;11795;47.054;15.408;2023-09-19T00:01:50;8.1;;;4.7;;
23252;SDS011;11795;47.054;15.408;2023-09-19T00:03:50;8.1;;;4.7;;
23252;SDS011;11795;47.054;15.408;2023-09-19T00:05:50;8.1;;;4.7;;
23252;SDS011;11795;47.054;15.408;2023-09-19T00:07:51;5.8;;;5.0;;
23252;SDS011;11795;47.054;15.408;2023-09-19T00:09:50;5.8;;;5.0;;
23252;SDS011;11795;47.054;15.408;2023-09-19T00:11:50;10.0;;;8.9;;
23252;SDS011;11795;47.054;15.408;2023-09-19T00:13:51;10.0;;;8.9;;
23252;SDS011;11795;47.054;15.408;2023-09-19T00:15:50;10.0;;;8.9;;
23252;SDS011;11795;47.054;15.408;2023-09-19T00:17:52;8.1;;;6.1;;
23252;SDS011;11795;47.054;15.408;2023-09-19T00:19:53;8.1;;;6.1;;
23252;SDS011;11795;47.054;15.408;2023-09-19T00:21:50;6.7;;;4.5;;
23252;SDS011;11795;47.054;15.408;2023-09-19T00:23:51;6.7;;;4.5;;
23252;SDS011;11795;47.054;15.408;2023-09-19T00:25:51;6.7;;;4.5;;
23252;SDS011;11795;47.054;15.408;2023-09-19T00:27:51;6.2;;;4.1;;
23252;SDS011;11795;47.054;15.408;2023-09-19T00:29:50;6.2;;;4.1;;
23252;SDS011;11795;47.054;15.408;2023-09-19T00:31:50;5.5;;;3.5;;
23252;SDS011;11795;47.054;15.408;2023-09-19T00:33:50;5.5;;;3.5;;
23252;SDS011;11795;47.054;15.408;2023-09-19T00:35:50;5.5;;;3.5;;
23252;SDS011;11795;47.054;15.408;2023-09-19T00:37:50;6.9;;;3.6;;
23252;SDS011;11795;47.054;15.408;2023-09-19T00:39:50;6.9;;;3.6;;
23252;SDS011;11795;47.054;15.408;2023-09-19T00:41:50;6.4;;;3.5;;
23252;SDS011;11795;47.054;15.408;2023-09-19T00:43:50;6.4;;;3.5;;
23252;SDS011;11795;47.054;15.408;2023-09-19T00:45:52;6.4;;;3.5;;
23252;SDS011;11795;47.054;15.408;2023-09-19T00:47:50;5.1;;;2.7;;
23252;SDS011;11795;47.054;15.408;2023-09-19T00:49:50;5.1;;;2.7;;
23252;SDS011;11795;47.054;15.408;2023-09-19T00:51:50;2.9;;;2.2;;
23252;SDS011;11795;47.054;15.408;2023-09-19T00:53:50;2.9;;;2.2;;
23252;SDS011;11795;47.054;15.408;2023-09-19T00:55:50;2.9;;;2.2;;
23252;SDS011;11795;47.054;15.408;2023-09-19T00:57:50;2.7;;;2.0;;
23252;SDS011;11795;47.054;15.408;2023-09-19T00:59:50;2.7;;;2.0;;
23252;SDS011;11795;47.054;15.408;2023-09-19T01:01:54;4.5;;;1.8;;
23252;SDS011;11795;47.054;15.408;2023-09-19T01:03:50;4.5;;;1.8;;
23252;SDS011;11795;47.054;15.408;2023-09-19T01:05:50;4.5;;;1.8;;
23252;SDS011;11795;47.054;15.408;2023-09-19T01:07:50;4.1;;;2.0;;
23252;SDS011;11795;47.054;15.408;2023-09-19T01:09:50;4.1;;;2.0;;
23252;SDS011;11795;47.054;15.408;2023-09-19T01:11:50;4.1;;;2.0;;
23252;SDS011;11795;47.054;15.408;2023-09-19T01:13:53;4.3;;;2.1;;
23252;SDS011;11795;47.054;15.408;2023-09-19T01:15:51;4.3;;;2.1;;
23252;SDS011;11795;47.054;15.408;2023-09-19T01:17:52;4.1;;;2.1;;
23252;SDS011;11795;47.054;15.408;2023-09-19T01:21:51;4.1;;;2.1;;
23252;SDS011;11795;47.054;15.408;2023-09-19T01:23:59;2.6;;;1.9;;
23252;SDS011;11795;47.054;15.408;2023-09-19T01:27:53;3.4;;;2.4;;
23252;SDS011;11795;47.054;15.408;2023-09-19T01:29:50;3.4;;;2.4;;
23252;SDS011;11795;47.054;15.408;2023-09-19T01:31:50;3.4;;;2.4;;
23252;SDS011;11795;47.054;15.408;2023-09-19T01:34:00;2.7;;;1.9;;
23252;SDS011;11795;47.054;15.408;2023-09-19T01:35:50;2.7;;;1.9;;
23252;SDS011;11795;47.054;15.408;2023-09-19T01:37:50;3.4;;;1.9;;
23252;SDS011;11795;47.054;15.408;2023-09-19T01:39:51;3.4;;;1.9;;
23252;SDS011;11795;47.054;15.408;2023-09-19T01:41:53;3.4;;;1.9;;
23252;SDS011;11795;47.054;15.408;2023-09-19T01:43:50;4.4;;;1.6;;
23252;SDS011;11795;47.054;15.408;2023-09-19T01:45:52;4.4;;;1.6;;
23252;SDS011;11795;47.054;15.408;2023-09-19T01:47:50;2.5;;;1.5;;
23252;SDS011;11795;47.054;15.408;2023-09-19T01:49:51;2.5;;;1.5;;
23252;SDS011;11795;47.054;15.408;2023-09-19T01:51:53;2.5;;;1.5;;
23252;SDS011;11795;47.054;15.408;2023-09-19T01:53:51;2.4;;;1.6;;
23252;SDS011;11795;47.054;15.408;2023-09-19T01:55:50;2.4;;;1.6;;
23252;SDS011;11795;47.054;15.408;2023-09-19T01:57:52;2.4;;;1.5;;
23252;SDS011;11795;47.054;15.408;2023-09-19T01:59:52;2.4;;;1.5;;
23252;SDS011;11795;47.054;15.408;2023-09-19T02:01:50;2.4;;;1.5;;
23252;SDS011;11795;47.054;15.408;2023-09-19T02:03:50;2.8;;;1.6;;
23252;SDS011;11795;47.054;15.408;2023-09-19T02:05:50;2.8;;;1.6;;
23252;SDS011;11795;47.054;15.408;2023-09-19T02:07:50;3.0;;;1.4;;
23252;SDS011;11795;47.054;15.408;2023-09-19T02:09:50;3.0;;;1.4;;
23252;SDS011;11795;47.054;15.408;2023-09-19T02:11:50;3.0;;;1.4;;
23252;SDS011;11795;47.054;15.408;2023-09-19T02:13:54;2.2;;;1.3;;
23252;SDS011;11795;47.054;15.408;2023-09-19T02:15:50;2.2;;;1.3;;
23252;SDS011;11795;47.054;15.408;2023-09-19T02:17:50;2.7;;;1.4;;
23252;SDS011;11795;47.054;15.408;2023-09-19T02:19:50;2.7;;;1.4;;
23252;SDS011;11795;47.054;15.408;2023-09-19T02:21:50;2.7;;;1.4;;
23252;SDS011;11795;47.054;15.408;2023-09-19T02:23:51;2.6;;;1.3;;
23252;SDS011;11795;47.054;15.408;2023-09-19T02:25:51;2.6;;;1.3;;
23252;SDS011;11795;47.054;15.408;2023-09-19T02:27:51;3.2;;;1.4;;
23252;SDS011;11795;47.054;15.408;2023-09-19T02:29:50;3.2;;;1.4;;
23252;SDS011;11795;47.054;15.408;2023-09-19T02:31:50;3.2;;;1.4;;
23252;SDS011;11795;47.054;15.408;2023-09-19T02:33:50;2.2;;;1.1;;
23252;SDS011;11795;47.054;15.408;2023-09-19T02:35:54;2.2;;;1.1;;
23252;SDS011;11795;47.054;15.408;2023-09-19T02:37:50;2.2;;;1.2;;
23252;SDS011;11795;47.054;15.408;2023-09-19T02:39:50;2.2;;;1.2;;
23252;SDS011;11795;47.054;15.408;2023-09-19T02:41:50;2.2;;;1.2;;
23252;SDS011;11795;47.054;15.408;2023-09-19T02:43:50;1.7;;;1.4;;
23252;SDS011;11795;47.054;15.408;2023-09-19T02:45:50;1.7;;;1.4;;
23252;SDS011;11795;47.054;15.408;2023-09-19T02:47:50;2.6;;;1.4;;
23252;SDS011;11795;47.054;15.408;2023-09-19T02:49:50;2.6;;;1.4;;
23252;SDS011;11795;47.054;15.408;2023-09-19T02:51:50;2.6;;;1.4;;
23252;SDS011;11795;47.054;15.408;2023-09-19T02:53:52;2.8;;;1.4;;
23252;SDS011;11795;47.054;15.408;2023-09-19T02:55:52;2.8;;;1.4;;
23252;SDS011;11795;47.054;15.408;2023-09-19T02:57:51;2.5;;;1.2;;
23252;SDS011;11795;47.054;15.408;2023-09-19T02:59:50;2.5;;;1.2;;
23252;SDS011;11795;47.054;15.408;2023-09-19T03:01:50;2.5;;;1.2;;
23252;SDS011;11795;47.054;15.408;2023-09-19T03:03:50;1.5;;;1.2;;
23252;SDS011;11795;47.054;15.408;2023-09-19T03:05:51;1.5;;;1.2;;
23252;SDS011;11795;47.054;15.408;2023-09-19T03:07:50;2.0;;;1.2;;
23252;SDS011;11795;47.054;15.408;2023-09-19T03:09:52;2.0;;;1.2;;
23252;SDS011;11795;47.054;15.408;2023-09-19T03:11:50;2.0;;;1.2;;
23252;SDS011;11795;47.054;15.408;2023-09-19T03:13:50;1.1;;;1.0;;
23252;SDS011;11795;47.054;15.408;2023-09-19T03:15:50;1.1;;;1.0;;
23252;SDS011;11795;47.054;15.408;2023-09-19T03:17:50;1.7;;;1.0;;
23252;SDS011;11795;47.054;15.408;2023-09-19T03:19:50;1.7;;;1.0;;
23252;SDS011;11795;47.054;15.408;2023-09-19T03:21:50;1.7;;;1.0;;
23252;SDS011;11795;47.054;15.408;2023-09-19T03:23:50;1.4;;;0.9;;
23252;SDS011;11795;47.054;15.408;2023-09-19T03:25:50;1.4;;;0.9;;
23252;SDS011;11795;47.054;15.408;2023-09-19T03:27:50;3.4;;;0.9;;
23252;SDS011;11795;47.054;15.408;2023-09-19T03:29:50;3.4;;;0.9;;
23252;SDS011;11795;47.054;15.408;2023-09-19T03:31:50;3.4;;;0.9;;
23252;SDS011;11795;47.054;15.408;2023-09-19T03:33:50;1.8;;;0.9;;
23252;SDS011;11795;47.054;15.408;2023-09-19T03:35:51;1.8;;;0.9;;
23252;SDS011;11795;47.054;15.408;2023-09-19T03:37:52;1.6;;;0.9;;
23252;SDS011;11795;47.054;15.408;2023-09-19T03:39:50;1.6;;;0.9;;
23252;SDS011;11795;47.054;15.408;2023-09-19T03:41:50;1.6;;;0.9;;
23252;SDS011;11795;47.054;15.408;2023-09-19T03:43:50;2.0;;;0.9;;
23252;SDS011;11795;47.054;15.408;2023-09-19T03:45:50;2.0;;;0.9;;
23252;SDS011;11795;47.054;15.408;2023-09-19T03:47:50;1.1;;;0.9;;
23252;SDS011;11795;47.054;15.408;2023-09-19T03:49:50;1.1;;;0.9;;
23252;SDS011;11795;47.054;15.408;2023-09-19T03:51:50;1.1;;;0.9;;
23252;SDS011;11795;47.054;15.408;2023-09-19T03:53:50;1.8;;;1.1;;
23252;SDS011;11795;47.054;15.408;2023-09-19T03:55:50;1.8;;;1.1;;
23252;SDS011;11795;47.054;15.408;2023-09-19T03:57:50;2.1;;;1.2;;
23252;SDS011;11795;47.054;15.408;2023-09-19T03:59:53;2.1;;;1.2;;
23252;SDS011;11795;47.054;15.408;2023-09-19T04:01:50;2.1;;;1.2;;
23252;SDS011;11795;47.054;15.408;2023-09-19T04:03:51;2.1;;;1.2;;
23252;SDS011;11795;47.054;15.408;2023-09-19T04:05:50;2.1;;;1.2;;
23252;SDS011;11795;47.054;15.408;2023-09-19T04:07:50;2.0;;;1.2;;
23252;SDS011;11795;47.054;15.408;2023-09-19T04:09:50;2.0;;;1.2;;
23252;SDS011;11795;47.054;15.408;2023-09-19T04:11:50;2.0;;;1.2;;
23252;SDS011;11795;47.054;15.408;2023-09-19T04:13:50;2.4;;;1.3;;
23252;SDS011;11795;47.054;15.408;2023-09-19T04:15:50;2.4;;;1.3;;
23252;SDS011;11795;47.054;15.408;2023-09-19T04:17:50;2.6;;;1.3;;
23252;SDS011;11795;47.054;15.408;2023-09-19T04:19:50;2.6;;;1.3;;
23252;SDS011;11795;47.054;15.408;2023-09-19T04:21:50;2.6;;;1.3;;
23252;SDS011;11795;47.054;15.408;2023-09-19T04:23:50;2.5;;;1.4;;
23252;SDS011;11795;47.054;15.408;2023-09-19T04:25:50;2.5;;;1.4;;
23252;SDS011;11795;47.054;15.408;2023-09-19T04:27:50;2.5;;;1.3;;
23252;SDS011;11795;47.054;15.408;2023-09-19T04:29:51;2.5;;;1.3;;
23252;SDS011;11795;47.054;15.408;2023-09-19T04:33:50;2.1;;;1.2;;
23252;SDS011;11795;47.054;15.408;2023-09-19T04:35:50;2.1;;;1.2;;
23252;SDS011;11795;47.054;15.408;2023-09-19T04:37:50;2.6;;;1.3;;
23252;SDS011;11795;47.054;15.408;2023-09-19T04:39:50;2.6;;;1.3;;
23252;SDS011;11795;47.054;15.408;2023-09-19T04:41:50;2.6;;;1.3;;
23252;SDS011;11795;47.054;15.408;2023-09-19T04:43:50;1.7;;;1.0;;
23252;SDS011;11795;47.054;15.408;2023-09-19T04:45:51;1.7;;;1.0;;
23252;SDS011;11795;47.054;15.408;2023-09-19T04:47:50;3.1;;;1.3;;
23252;SDS011;11795;47.054;15.408;2023-09-19T04:49:50;3.1;;;1.3;;
23252;SDS011;11795;47.054;15.408;2023-09-19T04:51:50;3.1;;;1.3;;
23252;SDS011;11795;47.054;15.408;2023-09-19T04:53:50;1.7;;;1.3;;
23252;SDS011;11795;47.054;15.408;2023-09-19T04:55:51;1.7;;;1.3;;
23252;SDS011;11795;47.054;15.408;2023-09-19T04:57:50;2.8;;;1.4;;
23252;SDS011;11795;47.054;15.408;2023-09-19T04:59:50;2.8;;;1.4;;
23252;SDS011;11795;47.054;15.408;2023-09-19T05:01:50;2.8;;;1.4;;
23252;SDS011;11795;47.054;15.408;2023-09-19T05:03:52;1.9;;;1.5;;
23252;SDS011;11795;47.054;15.408;2023-09-19T05:05:50;1.9;;;1.5;;
23252;SDS011;11795;47.054;15.408;2023-09-19T05:07:51;1.5;;;1.4;;
23252;SDS011;11795;47.054;15.408;2023-09-19T05:09:50;1.5;;;1.4;;
23252;SDS011;11795;47.054;15.408;2023-09-19T05:11:51;1.5;;;1.4;;
23252;SDS011;11795;47.054;15.408;2023-09-19T05:13:50;2.7;;;1.4;;
23252;SDS011;11795;47.054;15.408;2023-09-19T05:15:50;2.7;;;1.4;;
23252;SDS011;11795;47.054;15.408;2023-09-19T05:17:50;2.2;;;1.3;;
23252;SDS011;11795;47.054;15.408;2023-09-19T05:19:50;2.2;;;1.3;;
23252;SDS011;11795;47.054;15.408;2023-09-19T05:21:50;2.2;;;1.3;;
23252;SDS011;11795;47.054;15.408;2023-09-19T05:23:51;2.7;;;1.6;;
23252;SDS011;11795;47.054;15.408;2023-09-19T05:25:50;2.7;;;1.6;;
23252;SDS011;11795;47.054;15.408;2023-09-19T05:27:52;2.0;;;1.5;;
23252;SDS011;11795;47.054;15.408;2023-09-19T05:29:53;2.0;;;1.5;;
23252;SDS011;11795;47.054;15.408;2023-09-19T05:31:51;2.0;;;1.5;;
23252;SDS011;11795;47.054;15.408;2023-09-19T05:33:50;2.8;;;2.0;;
23252;SDS011;11795;47.054;15.408;2023-09-19T05:35:50;2.8;;;2.0;;
23252;SDS011;11795;47.054;15.408;2023-09-19T05:37:51;2.8;;;1.9;;
23252;SDS011;11795;47.054;15.408;2023-09-19T05:39:50;2.8;;;1.9;;
23252;SDS011;11795;47.054;15.408;2023-09-19T05:41:50;2.8;;;1.9;;
23252;SDS011;11795;47.054;15.408;2023-09-19T05:43:50;3.1;;;1.7;;
23252;SDS011;11795;47.054;15.408;2023-09-19T05:45:52;3.1;;;1.7;;
23252;SDS011;11795;47.054;15.408;2023-09-19T05:47:51;3.5;;;2.0;;
23252;SDS011;11795;47.054;15.408;2023-09-19T05:49:50;3.5;;;2.0;;
23252;SDS011;11795;47.054;15.408;2023-09-19T05:51:53;3.5;;;2.0;;
23252;SDS011;11795;47.054;15.408;2023-09-19T05:53:50;2.4;;;1.7;;
23252;SDS011;11795;47.054;15.408;2023-09-19T05:55:50;2.4;;;1.7;;
23252;SDS011;11795;47.054;15.408;2023-09-19T05:57:51;3.7;;;2.3;;
23252;SDS011;11795;47.054;15.408;2023-09-19T05:59:50;3.7;;;2.3;;
23252;SDS011;11795;47.054;15.408;2023-09-19T06:01:52;3.7;;;2.3;;
23252;SDS011;11795;47.054;15.408;2023-09-19T06:03:51;3.0;;;1.9;;
23252;SDS011;11795;47.054;15.408;2023-09-19T06:05:51;3.0;;;1.9;;
23252;SDS011;11795;47.054;15.408;2023-09-19T06:07:50;3.0;;;1.9;;
23252;SDS011;11795;47.054;15.408;2023-09-19T06:09:50;2.5;;;2.1;;
23252;SDS011;11795;47.054;15.408;2023-09-19T06:11:51;2.5;;;2.1;;
23252;SDS011;11795;47.054;15.408;2023-09-19T06:13:51;3.1;;;2.8;;
23252;SDS011;11795;47.054;15.408;2023-09-19T06:15:50;3.1;;;2.8;;
23252;SDS011;11795;47.054;15.408;2023-09-19T06:17:51;3.1;;;2.8;;
23252;SDS011;11795;47.054;15.408;2023-09-19T06:19:50;4.6;;;4.0;;
23252;SDS011;11795;47.054;15.408;2023-09-19T06:21:50;4.6;;;4.0;;
23252;SDS011;11795;47.054;15.408;2023-09-19T06:23:50;4.7;;;3.5;;
23252;SDS011;11795;47.054;15.408;2023-09-19T06:25:50;4.7;;;3.5;;
23252;SDS011;11795;47.054;15.408;2023-09-19T06:27:52;4.7;;;3.5;;
23252;SDS011;11795;47.054;15.408;2023-09-19T06:29:50;2.8;;;2.1;;
23252;SDS011;11795;47.054;15.408;2023-09-19T06:31:51;2.8;;;2.1;;
23252;SDS011;11795;47.054;15.408;2023-09-19T06:33:50;3.1;;;1.7;;
23252;SDS011;11795;47.054;15.408;2023-09-19T06:35:52;3.1;;;1.7;;
23252;SDS011;11795;47.054;15.408;2023-09-19T06:37:51;3.1;;;1.7;;
23252;SDS011;11795;47.054;15.408;2023-09-19T06:39:50;1.8;;;1.6;;
23252;SDS011;11795;47.054;15.408;2023-09-19T06:41:50;1.8;;;1.6;;
23252;SDS011;11795;47.054;15.408;2023-09-19T06:43:52;2.2;;;1.6;;
23252;SDS011;11795;47.054;15.408;2023-09-19T06:45:51;2.2;;;1.6;;
23252;SDS011;11795;47.054;15.408;2023-09-19T06:47:50;2.2;;;1.6;;
23252;SDS011;11795;47.054;15.408;2023-09-19T06:49:51;3.6;;;2.5;;
23252;SDS011;11795;47.054;15.408;2023-09-19T06:51:50;3.6;;;2.5;;
23252;SDS011;11795;47.054;15.408;2023-09-19T06:53:51;2.4;;;2.2;;
23252;SDS011;11795;47.054;15.408;2023-09-19T06:55:50;2.4;;;2.2;;
23252;SDS011;11795;47.054;15.408;2023-09-19T06:57:50;2.4;;;2.2;;
23252;SDS011;11795;47.054;15.408;2023-09-19T06:59:50;2.5;;;1.9;;
23252;SDS011;11795;47.054;15.408;2023-09-19T07:01:51;2.5;;;1.9;;
23252;SDS011;11795;47.054;15.408;2023-09-19T07:03:50;2.2;;;1.7;;
23252;SDS011;11795;47.054;15.408;2023-09-19T07:05:50;2.2;;;1.7;;
23252;SDS011;11795;47.054;15.408;2023-09-19T07:07:50;2.2;;;1.7;;
23252;SDS011;11795;47.054;15.408;2023-09-19T07:09:51;3.3;;;1.3;;
23252;SDS011;11795;47.054;15.408;2023-09-19T07:11:51;3.3;;;1.3;;
23252;SDS011;11795;47.054;15.408;2023-09-19T07:13:50;3.2;;;1.5;;
23252;SDS011;11795;47.054;15.408;2023-09-19T07:15:50;3.2;;;1.5;;
23252;SDS011;11795;47.054;15.408;2023-09-19T07:17:50;3.2;;;1.5;;
23252;SDS011;11795;47.054;15.408;2023-09-19T07:19:50;1.8;;;1.4;;
23252;SDS011;11795;47.054;15.408;2023-09-19T07:21:50;1.8;;;1.4;;
23252;SDS011;11795;47.054;15.408;2023-09-19T07:23:50;3.0;;;1.2;;
23252;SDS011;11795;47.054;15.408;2023-09-19T07:25:50;3.0;;;1.2;;
23252;SDS011;11795;47.054;15.408;2023-09-19T07:27:51;3.0;;;1.2;;
23252;SDS011;11795;47.054;15.408;2023-09-19T07:29:50;1.7;;;1.3;;
23252;SDS011;11795;47.054;15.408;2023-09-19T07:31:50;1.7;;;1.3;;
23252;SDS011;11795;47.054;15.408;2023-09-19T07:33:50;2.7;;;2.1;;
23252;SDS011;11795;47.054;15.408;2023-09-19T07:35:50;2.7;;;2.1;;
23252;SDS011;11795;47.054;15.408;2023-09-19T07:37:51;2.7;;;2.1;;
23252;SDS011;11795;47.054;15.408;2023-09-19T07:39:50;2.7;;;1.7;;
23252;SDS011;11795;47.054;15.408;2023-09-19T07:41:50;2.7;;;1.7;;
23252;SDS011;11795;47.054;15.408;2023-09-19T07:43:50;2.2;;;1.5;;
23252;SDS011;11795;47.054;15.408;2023-09-19T07:45:50;2.2;;;1.5;;
23252;SDS011;11795;47.054;15.408;2023-09-19T07:47:50;2.2;;;1.5;;
23252;SDS011;11795;47.054;15.408;2023-09-19T07:49:50;2.6;;;2.0;;
23252;SDS011;11795;47.054;15.408;2023-09-19T07:51:50;2.6;;;2.0;;
23252;SDS011;11795;47.054;15.408;2023-09-19T07:53:50;2.2;;;2.0;;
23252;SDS011;11795;47.054;15.408;2023-09-19T07:55:50;2.2;;;2.0;;
23252;SDS011;11795;47.054;15.408;2023-09-19T07:57:50;2.2;;;2.0;;
23252;SDS011;11795;47.054;15.408;2023-09-19T07:59:50;1.8;;;1.7;;
23252;SDS011;11795;47.054;15.408;2023-09-19T08:01:50;1.8;;;1.7;;
23252;SDS011;11795;47.054;15.408;2023-09-19T08:03:50;2.1;;;1.4;;
23252;SDS011;11795;47.054;15.408;2023-09-19T08:05:50;2.1;;;1.4;;
23252;SDS011;11795;47.054;15.408;2023-09-19T08:07:50;2.1;;;1.4;;
23252;SDS011;11795;47.054;15.408;2023-09-19T08:09:50;2.9;;;1.6;;
23252;SDS011;11795;47.054;15.408;2023-09-19T08:11:50;2.9;;;1.6;;
23252;SDS011;11795;47.054;15.408;2023-09-19T08:13:50;2.3;;;1.5;;
23252;SDS011;11795;47.054;15.408;2023-09-19T08:15:51;2.3;;;1.5;;
23252;SDS011;11795;47.054;15.408;2023-09-19T08:17:51;2.3;;;1.5;;
23252;SDS011;11795;47.054;15.408;2023-09-19T08:19:52;3.3;;;1.4;;
23252;SDS011;11795;47.054;15.408;2023-09-19T08:21:50;3.3;;;1.4;;
23252;SDS011;11795;47.054;15.408;2023-09-19T08:23:50;2.5;;;1.5;;
23252;SDS011;11795;47.054;15.408;2023-09-19T08:25:50;2.5;;;1.5;;
23252;SDS011;11795;47.054;15.408;2023-09-19T08:27:51;2.5;;;1.5;;
23252;SDS011;11795;47.054;15.408;2023-09-19T08:29:51;3.5;;;1.5;;
23252;SDS011;11795;47.054;15.408;2023-09-19T08:31:51;3.5;;;1.5;;
23252;SDS011;11795;47.054;15.408;2023-09-19T08:33:51;2.1;;;1.4;;
23252;SDS011;11795;47.054;15.408;2023-09-19T08:35:50;2.1;;;1.4;;
23252;SDS011;11795;47.054;15.408;2023-09-19T08:37:51;2.1;;;1.4;;
23252;SDS011;11795;47.054;15.408;2023-09-19T08:39:50;3.2;;;1.4;;
23252;SDS011;11795;47.054;15.408;2023-09-19T08:41:51;3.2;;;1.4;;
23252;SDS011;11795;47.054;15.408;2023-09-19T08:43:51;2.9;;;1.7;;
23252;SDS011;11795;47.054;15.408;2023-09-19T08:45:50;2.9;;;1.7;;
23252;SDS011;11795;47.054;15.408;2023-09-19T08:47:51;2.9;;;1.7;;
23252;SDS011;11795;47.054;15.408;2023-09-19T08:49:52;3.5;;;2.4;;
23252;SDS011;11795;47.054;15.408;2023-09-19T08:51:51;3.5;;;2.4;;
23252;SDS011;11795;47.054;15.408;2023-09-19T08:53:51;2.9;;;1.8;;
23252;SDS011;11795;47.054;15.408;2023-09-19T08:55:51;2.9;;;1.8;;
23252;SDS011;11795;47.054;15.408;2023-09-19T08:57:50;2.9;;;1.8;;
23252;SDS011;11795;47.054;15.408;2023-09-19T08:59:50;3.6;;;1.5;;
23252;SDS011;11795;47.054;15.408;2023-09-19T09:01:53;3.6;;;1.5;;
23252;SDS011;11795;47.054;15.408;2023-09-19T09:03:51;1.8;;;1.3;;
23252;SDS011;11795;47.054;15.408;2023-09-19T09:05:50;1.8;;;1.3;;
23252;SDS011;11795;47.054;15.408;2023-09-19T09:07:52;1.8;;;1.3;;
23252;SDS011;11795;47.054;15.408;2023-09-19T09:09:50;3.3;;;1.3;;
23252;SDS011;11795;47.054;15.408;2023-09-19T09:11:53;3.3;;;1.3;;
23252;SDS011;11795;47.054;15.408;2023-09-19T09:13:50;3.5;;;1.6;;
23252;SDS011;11795;47.054;15.408;2023-09-19T09:15:50;3.5;;;1.6;;
23252;SDS011;11795;47.054;15.408;2023-09-19T09:17:50;3.5;;;1.6;;
23252;SDS011;11795;47.054;15.408;2023-09-19T09:19:52;3.3;;;1.4;;
23252;SDS011;11795;47.054;15.408;2023-09-19T09:21:50;3.3;;;1.4;;
23252;SDS011;11795;47.054;15.408;2023-09-19T09:23:51;4.1;;;2.0;;
23252;SDS011;11795;47.054;15.408;2023-09-19T09:25:51;4.1;;;2.0;;
23252;SDS011;11795;47.054;15.408;2023-09-19T09:27:58;4.1;;;2.0;;
23252;SDS011;11795;47.054;15.408;2023-09-19T09:29:51;3.9;;;1.7;;
23252;SDS011;11795;47.054;15.408;2023-09-19T09:31:50;3.9;;;1.7;;
23252;SDS011;11795;47.054;15.408;2023-09-19T09:33:53;3.8;;;1.5;;
23252;SDS011;11795;47.054;15.408;2023-09-19T09:35:52;3.8;;;1.5;;
23252;SDS011;11795;47.054;15.408;2023-09-19T09:37:58;3.8;;;1.5;;
23252;SDS011;11795;47.054;15.408;2023-09-19T09:39:52;4.3;;;1.5;;
23252;SDS011;11795;47.054;15.408;2023-09-19T09:41:50;4.3;;;1.5;;
23252;SDS011;11795;47.054;15.408;2023-09-19T09:43:50;4.0;;;1.8;;
23252;SDS011;11795;47.054;15.408;2023-09-19T09:47:55;4.0;;;1.8;;
23252;SDS011;11795;47.054;15.408;2023-09-19T09:49:54;5.0;;;1.8;;
23252;SDS011;11795;47.054;15.408;2023-09-19T09:51:58;5.0;;;1.8;;
23252;SDS011;11795;47.054;15.408;2023-09-19T09:53:50;2.9;;;1.8;;
23252;SDS011;11795;47.054;15.408;2023-09-19T09:55:57;2.9;;;1.8;;
23252;SDS011;11795;47.054;15.408;2023-09-19T09:57:52;2.9;;;1.8;;
23252;SDS011;11795;47.054;15.408;2023-09-19T09:59:50;3.0;;;1.9;;
23252;SDS011;11795;47.054;15.408;2023-09-19T10:01:50;3.0;;;1.9;;
23252;SDS011;11795;47.054;15.408;2023-09-19T10:03:56;2.7;;;2.1;;
23252;SDS011;11795;47.054;15.408;2023-09-19T10:05:53;2.7;;;2.1;;
23252;SDS011;11795;47.054;15.408;2023-09-19T10:07:51;2.7;;;2.1;;
23252;SDS011;11795;47.054;15.408;2023-09-19T10:09:51;4.7;;;2.0;;
23252;SDS011;11795;47.054;15.408;2023-09-19T10:12:02;4.7;;;2.0;;
23252;SDS011;11795;47.054;15.408;2023-09-19T10:13:50;2.6;;;2.0;;
23252;SDS011;11795;47.054;15.408;2023-09-19T10:15:51;2.6;;;2.0;;
23252;SDS011;11795;47.054;15.408;2023-09-19T10:17:50;2.6;;;2.0;;
23252;SDS011;11795;47.054;15.408;2023-09-19T10:19:52;5.2;;;2.2;;
23252;SDS011;11795;47.054;15.408;2023-09-19T10:21:50;5.2;;;2.2;;
23252;SDS011;11795;47.054;15.408;2023-09-19T10:23:52;3.4;;;1.6;;
23252;SDS011;11795;47.054;15.408;2023-09-19T10:25:50;3.4;;;1.6;;
23252;SDS011;11795;47.054;15.408;2023-09-19T10:27:50;3.4;;;1.6;;
23252;SDS011;11795;47.054;15.408;2023-09-19T10:29:51;2.8;;;1.4;;
23252;SDS011;11795;47.054;15.408;2023-09-19T10:31:50;2.8;;;1.4;;
23252;SDS011;11795;47.054;15.408;2023-09-19T10:33:50;2.8;;;1.4;;
23252;SDS011;11795;47.054;15.408;2023-09-19T10:35:51;2.3;;;1.4;;
23252;SDS011;11795;47.054;15.408;2023-09-19T10:37:50;2.3;;;1.4;;
23252;SDS011;11795;47.054;15.408;2023-09-19T10:39:51;2.7;;;1.4;;
23252;SDS011;11795;47.054;15.408;2023-09-19T10:41:53;2.7;;;1.4;;
23252;SDS011;11795;47.054;15.408;2023-09-19T10:43:50;2.7;;;1.4;;
23252;SDS011;11795;47.054;15.408;2023-09-19T10:45:52;2.3;;;1.1;;
23252;SDS011;11795;47.054;15.408;2023-09-19T10:47:50;2.3;;;1.1;;
23252;SDS011;11795;47.054;15.408;2023-09-19T10:49:50;2.2;;;1.2;;
23252;SDS011;11795;47.054;15.408;2023-09-19T10:51:51;2.2;;;1.2;;
23252;SDS011;11795;47.054;15.408;2023-09-19T10:53:51;2.2;;;1.2;;
23252;SDS011;11795;47.054;15.408;2023-09-19T10:55:51;2.0;;;1.0;;
23252;SDS011;11795;47.054;15.408;2023-09-19T10:57:50;2.0;;;1.0;;
23252;SDS011;11795;47.054;15.408;2023-09-19T11:01:51;2.3;;;0.9;;
23252;SDS011;11795;47.054;15.408;2023-09-19T11:03:55;2.3;;;0.9;;
23252;SDS011;11795;47.054;15.408;2023-09-19T11:07:57;3.6;;;1.2;;
23252;SDS011;11795;47.054;15.408;2023-09-19T11:09:53;1.5;;;0.8;;
23252;SDS011;11795;47.054;15.408;2023-09-19T11:11:53;1.5;;;0.8;;
23252;SDS011;11795;47.054;15.408;2023-09-19T11:17:52;1.4;;;0.8;;
23252;SDS011;11795;47.054;15.408;2023-09-19T11:21:52;2.7;;;0.9;;
23252;SDS011;11795;47.054;15.408;2023-09-19T11:25:52;1.9;;;0.8;;
23252;SDS011;11795;47.054;15.408;2023-09-19T11:29:50;1.4;;;0.7;;
23252;SDS011;11795;47.054;15.408;2023-09-19T11:31:51;1.4;;;0.7;;
23252;SDS011;11795;47.054;15.408;2023-09-19T11:33:50;1.4;;;0.7;;
23252;SDS011;11795;47.054;15.408;2023-09-19T11:38:00;2.2;;;1.3;;
23252;SDS011;11795;47.054;15.408;2023-09-19T11:41:56;2.2;;;0.9;;
23252;SDS011;11795;47.054;15.408;2023-09-19T11:43:51;2.2;;;0.9;;
23252;SDS011;11795;47.054;15.408;2023-09-19T11:46:04;2.4;;;1.0;;
23252;SDS011;11795;47.054;15.408;2023-09-19T11:47:50;2.4;;;1.0;;
23252;SDS011;11795;47.054;15.408;2023-09-19T11:49:50;3.3;;;0.9;;
23252;SDS011;11795;47.054;15.408;2023-09-19T11:51:51;3.3;;;0.9;;
23252;SDS011;11795;47.054;15.408;2023-09-19T11:53:50;3.3;;;0.9;;
23252;SDS011;11795;47.054;15.408;2023-09-19T11:55:50;2.0;;;0.9;;
23252;SDS011;11795;47.054;15.408;2023-09-19T11:57:51;2.0;;;0.9;;
23252;SDS011;11795;47.054;15.408;2023-09-19T11:59:53;2.7;;;0.9;;
23252;SDS011;11795;47.054;15.408;2023-09-19T12:01:50;2.7;;;0.9;;
23252;SDS011;11795;47.054;15.408;2023-09-19T12:03:52;2.7;;;0.9;;
23252;SDS011;11795;47.054;15.408;2023-09-19T12:05:50;1.4;;;0.9;;
23252;SDS011;11795;47.054;15.408;2023-09-19T12:07:50;1.4;;;0.9;;
23252;SDS011;11795;47.054;15.408;2023-09-19T12:09:51;2.6;;;0.9;;
23252;SDS011;11795;47.054;15.408;2023-09-19T12:11:50;2.6;;;0.9;;
23252;SDS011;11795;47.054;15.408;2023-09-19T12:13:50;2.6;;;0.9;;
23252;SDS011;11795;47.054;15.408;2023-09-19T12:15:50;2.0;;;1.2;;
23252;SDS011;11795;47.054;15.408;2023-09-19T12:17:50;2.0;;;1.2;;
23252;SDS011;11795;47.054;15.408;2023-09-19T12:19:50;2.0;;;0.9;;
23252;SDS011;11795;47.054;15.408;2023-09-19T12:21:54;2.0;;;0.9;;
23252;SDS011;11795;47.054;15.408;2023-09-19T12:23:58;2.0;;;0.9;;
23252;SDS011;11795;47.054;15.408;2023-09-19T12:25:53;2.6;;;1.1;;
23252;SDS011;11795;47.054;15.408;2023-09-19T12:27:52;2.6;;;1.1;;
23252;SDS011;11795;47.054;15.408;2023-09-19T12:29:50;2.4;;;0.9;;
23252;SDS011;11795;47.054;15.408;2023-09-19T12:31:51;2.4;;;0.9;;
23252;SDS011;11795;47.054;15.408;2023-09-19T12:33:52;2.4;;;0.9;;
23252;SDS011;11795;47.054;15.408;2023-09-19T12:35:51;3.4;;;1.1;;
23252;SDS011;11795;47.054;15.408;2023-09-19T12:37:53;3.4;;;1.1;;
23252;SDS011;11795;47.054;15.408;2023-09-19T12:39:51;1.1;;;0.8;;